createdAt,value
2018-02-07T07:36:03.507Z,-1.71
2018-02-07T07:41:03.594Z,-1.71
2018-02-07T07:46:03.383Z,-1.71
2018-02-07T07:51:03.091Z,-1.71
2018-02-07T07:56:03.833Z,-1.71
2018-02-07T08:01:03.567Z,-1.71
2018-02-07T08:06:03.377Z,-1.71
2018-02-07T08:11:03.472Z,-1.71
2018-02-07T08:16:03.199Z,-1.71
2018-02-07T08:21:02.997Z,-1.71
2018-02-07T08:26:03.729Z,-1.71
2018-02-07T08:31:03.594Z,-1.71
2018-02-07T08:36:03.553Z,-1.71
2018-02-07T08:41:03.667Z,-1.71
2018-02-07T08:46:03.367Z,-1.71
2018-02-07T08:51:03.043Z,-1.71
2018-02-07T08:56:03.765Z,-1.71
2018-02-07T09:01:03.503Z,-1.71
2018-02-07T09:06:03.273Z,-1.71
2018-02-07T09:11:03.364Z,-1.71
2018-02-07T09:16:03.273Z,-1.71
2018-02-07T09:21:03.097Z,-1.71
2018-02-07T09:26:03.891Z,-1.71
2018-02-07T09:31:03.657Z,-1.71
2018-02-07T09:36:03.422Z,-1.71
2018-02-07T09:41:03.573Z,-1.71
2018-02-07T09:46:03.240Z,-1.71
2018-02-07T09:51:03.949Z,-1.71
2018-02-07T09:56:03.802Z,-1.71
2018-02-07T10:01:03.478Z,-1.71
2018-02-07T10:06:03.169Z,-1.71
2018-02-07T10:11:03.296Z,-1.71
2018-02-07T10:16:03.075Z,-1.71
2018-02-07T10:21:02.952Z,-1.11
2018-02-07T10:26:03.754Z,-1.01
2018-02-07T10:31:03.495Z,-0.91
2018-02-07T10:36:03.161Z,-0.91
2018-02-07T10:41:03.291Z,-0.91
2018-02-07T10:46:03.392Z,-0.91
2018-02-07T10:51:03.336Z,-0.91
2018-02-07T10:56:03.068Z,-0.91
2018-02-07T11:01:03.973Z,-0.91
2018-02-07T11:06:03.628Z,-0.91
2018-02-07T11:11:03.692Z,-0.91
2018-02-07T11:16:03.464Z,-0.91
2018-02-07T11:21:03.300Z,-0.91
2018-02-07T11:26:03.277Z,-0.91
2018-02-07T11:31:03.129Z,-0.91
2018-02-07T11:36:02.985Z,-0.91
2018-02-07T11:41:03.044Z,-0.91
2018-02-07T11:46:03.808Z,-0.91
2018-02-07T11:51:03.638Z,-0.91
2018-02-07T11:56:03.365Z,1.09
2018-02-07T12:01:03.119Z,1.09
2018-02-07T12:06:04.137Z,1.09
2018-02-07T12:11:03.359Z,1.09
2018-02-07T12:16:03.091Z,1.09
2018-02-07T12:21:03.883Z,1.39
2018-02-07T12:26:03.614Z,1.49
2018-02-07T12:31:03.370Z,1.79
2018-02-07T12:36:03.053Z,1.79
2018-02-07T12:41:03.191Z,1.79
2018-02-07T12:46:03.952Z,1.79
2018-02-07T12:51:03.674Z,1.79
2018-02-07T12:56:03.423Z,1.79
2018-02-07T13:01:03.125Z,1.99
2018-02-07T13:06:03.899Z,2.29
2018-02-07T13:11:03.020Z,2.19
2018-02-07T13:16:03.731Z,2.19
2018-02-07T13:21:03.576Z,2.19
2018-02-07T13:26:03.316Z,2.19
2018-02-07T13:31:03.048Z,2.19
2018-02-07T13:36:03.758Z,2.49
2018-02-07T13:41:03.921Z,2.59
2018-02-07T13:46:03.776Z,2.39
2018-02-07T13:51:03.489Z,2.39
2018-02-07T13:56:03.219Z,2.29
2018-02-07T14:01:03.021Z,2.29
2018-02-07T14:06:03.772Z,2.29
2018-02-07T14:11:03.834Z,2.49
2018-02-07T14:16:03.557Z,2.59
2018-02-07T14:21:03.316Z,2.49
2018-02-07T14:26:03.067Z,2.69
2018-02-07T14:31:03.798Z,2.39
2018-02-07T14:36:03.496Z,2.39
2018-02-07T14:41:03.594Z,2.34
2018-02-07T14:46:03.313Z,2.33
2018-02-07T14:51:03.072Z,2.27
2018-02-07T14:56:03.012Z,2.43
2018-02-07T15:01:03.692Z,2.43
2018-02-07T15:06:03.460Z,2.22
2018-02-07T15:11:03.571Z,2.12
2018-02-07T15:16:03.326Z,2.19
2018-02-07T15:21:03.379Z,1.93
2018-02-07T15:26:03.204Z,2.06
2018-02-07T15:31:03.968Z,2.09
2018-02-07T15:36:03.632Z,1.99
2018-02-07T15:41:03.793Z,1.79
2018-02-07T15:46:03.553Z,1.59
2018-02-07T15:51:03.329Z,1.49
2018-02-07T15:56:03.176Z,1.59
2018-02-07T16:01:03.927Z,1.49
2018-02-07T16:06:03.652Z,1.39
2018-02-07T16:11:03.887Z,1.19
2018-02-07T16:16:03.541Z,1.09
2018-02-07T16:21:03.373Z,0.99
2018-02-07T16:26:03.683Z,0.89
2018-02-07T16:31:03.473Z,0.79
2018-02-07T16:36:03.200Z,0.59
2018-02-07T16:41:03.512Z,0.59
2018-02-07T16:46:03.185Z,0.49
2018-02-07T16:51:03.945Z,0.49
2018-02-07T16:56:04.012Z,0.49
2018-02-07T17:01:04.133Z,0.49
2018-02-07T17:06:04.364Z,0.49
2018-02-07T17:11:04.094Z,0.49
2018-02-07T17:16:03.735Z,0.49
2018-02-07T17:21:03.623Z,0.49
2018-02-07T17:26:03.363Z,0.49
2018-02-07T17:31:03.640Z,0.49
2018-02-07T17:36:03.400Z,0.49
2018-02-07T17:41:03.409Z,0.49
2018-02-07T17:46:03.505Z,0.49
2018-02-07T17:51:03.419Z,0.49
2018-02-07T17:56:04.023Z,0.49
2018-02-07T18:01:04.141Z,0.49
2018-02-07T18:06:04.828Z,0.49
2018-02-07T18:11:03.862Z,0.49
2018-02-07T18:16:03.823Z,0.49
2018-02-07T18:21:03.835Z,0.49
2018-02-07T18:26:04.832Z,0.49
2018-02-07T18:31:03.441Z,0.49
2018-02-07T18:36:03.197Z,0.49
2018-02-07T18:41:03.380Z,0.49
2018-02-07T18:46:03.161Z,0.49
2018-02-07T18:51:03.919Z,-1.11
2018-02-07T18:56:03.691Z,-1.01
2018-02-07T19:01:04.757Z,-1.11
2018-02-07T19:06:04.352Z,-1.01
2018-02-07T19:11:03.814Z,-1.11
2018-02-07T19:16:03.455Z,-1.21
2018-02-07T19:21:03.170Z,-1.11
2018-02-07T19:26:03.241Z,-1.31
2018-02-07T19:31:04.133Z,-1.51
2018-02-07T19:36:04.773Z,-1.71
2018-02-07T19:41:03.862Z,-1.61
2018-02-07T19:46:04.704Z,-1.51
2018-02-07T19:51:04.488Z,-1.81
2018-02-07T19:56:04.932Z,-1.71
2018-02-07T20:01:04.603Z,-1.81
2018-02-07T20:06:04.911Z,-2.01
2018-02-07T20:11:04.801Z,-2.01
2018-02-07T20:16:04.527Z,-2.41
2018-02-07T20:21:04.407Z,-2.41
2018-02-07T20:26:05.882Z,-1.91
2018-02-07T20:31:05.106Z,-1.71
2018-02-07T20:36:05.554Z,-2.31
2018-02-07T20:41:05.514Z,-2.31
2018-02-07T20:46:04.649Z,-1.71
2018-02-07T20:51:04.399Z,-1.41
2018-02-07T20:56:03.119Z,-1.81
2018-02-07T21:01:04.415Z,-2.61
2018-02-07T21:06:11.376Z,-2.71
2018-02-07T21:11:04.248Z,-2.41
2018-02-07T21:16:03.375Z,-1.71
2018-02-07T21:21:03.130Z,-2.41
2018-02-07T21:26:04.008Z,-3.01
2018-02-07T21:31:03.851Z,-3.11
2018-02-07T21:36:03.633Z,-3.11
2018-02-07T21:41:03.807Z,-3.21
2018-02-07T21:46:03.724Z,-3.31
2018-02-07T21:51:03.412Z,-3.41
2018-02-07T21:56:03.461Z,-3.41
2018-02-07T22:01:04.073Z,-2.91
2018-02-07T22:06:03.716Z,-3.11
2018-02-07T22:11:03.751Z,-2.71
2018-02-07T22:16:03.886Z,-2.41
2018-02-07T22:21:03.599Z,-2.91
2018-02-07T22:26:03.367Z,-3.51
2018-02-07T22:31:03.999Z,-3.61
2018-02-07T22:36:03.746Z,-3.61
2018-02-07T22:41:03.627Z,-3.51
2018-02-07T22:46:03.366Z,-3.01
2018-02-07T22:51:03.092Z,-3.61
2018-02-07T22:56:03.833Z,-3.91
2018-02-07T23:01:03.571Z,-3.81
2018-02-07T23:06:03.354Z,-3.91
2018-02-07T23:11:03.532Z,-4.11
2018-02-07T23:16:03.261Z,-4.11
2018-02-07T23:21:03.089Z,-3.71
2018-02-07T23:26:04.207Z,-3.21
2018-02-07T23:31:03.674Z,-3.51
2018-02-07T23:36:03.395Z,-3.81
2018-02-07T23:41:03.599Z,-4.21
2018-02-07T23:46:03.299Z,-4.31
2018-02-07T23:51:03.065Z,-4.31
2018-02-07T23:56:03.923Z,-4.21
